createdAt,value
2024-03-27T00:00:51.644Z,91.67
2024-03-27T00:03:40.925Z,91.50
2024-03-27T00:06:11.242Z,91.28
2024-03-27T00:08:39.714Z,92.25
2024-03-27T00:11:08.392Z,92.92
2024-03-27T00:13:36.946Z,93.26
2024-03-27T00:16:05.966Z,93.21
2024-03-27T00:18:34.685Z,94.21
2024-03-27T00:21:03.243Z,94.45
2024-03-27T00:23:31.828Z,94.40
2024-03-27T00:26:01.012Z,93.80
2024-03-27T00:28:29.925Z,93.76
2024-03-27T00:30:58.706Z,93.62
2024-03-27T00:33:27.198Z,92.07
2024-03-27T00:35:57.140Z,93.53
2024-03-27T00:38:26.882Z,92.53
2024-03-27T00:40:55.459Z,92.72
2024-03-27T00:43:24.143Z,91.36
2024-03-27T00:45:53.484Z,91.54
2024-03-27T00:48:23.026Z,90.72
2024-03-27T00:50:51.546Z,89.81
2024-03-27T00:53:20.056Z,89.41
2024-03-27T00:56:00.469Z,91.37
2024-03-27T00:58:30.290Z,90.74
2024-03-27T01:00:59.368Z,90.00
2024-03-27T01:03:28.453Z,89.55
2024-03-27T01:05:58.079Z,89.22
2024-03-27T01:08:27.149Z,88.85
2024-03-27T01:10:55.629Z,88.44
2024-03-27T01:13:24.303Z,87.95
2024-03-27T01:15:54.574Z,87.75
2024-03-27T01:18:23.481Z,87.62
2024-03-27T01:20:52.143Z,87.24
2024-03-27T01:23:20.654Z,87.10
2024-03-27T01:25:49.184Z,87.29
2024-03-27T01:28:17.830Z,87.79
2024-03-27T01:30:46.359Z,87.78
2024-03-27T01:33:14.937Z,88.20
2024-03-27T01:35:46.983Z,88.73
2024-03-27T01:38:15.524Z,88.47
2024-03-27T01:40:44.159Z,89.51
2024-03-27T01:43:12.693Z,90.90
2024-03-27T01:45:41.457Z,90.62
2024-03-27T01:48:10.119Z,90.75
2024-03-27T01:50:39.986Z,90.04
2024-03-27T01:53:12.262Z,90.84
2024-03-27T01:55:41.065Z,90.59
2024-03-27T01:58:12.138Z,89.60
2024-03-27T02:00:40.825Z,89.45
2024-03-27T02:03:10.189Z,89.78
2024-03-27T02:05:39.169Z,90.17
2024-03-27T02:08:07.940Z,90.17
2024-03-27T02:10:36.698Z,90.38
2024-03-27T02:13:05.261Z,91.82
2024-03-27T02:15:33.986Z,92.49
2024-03-27T02:18:02.602Z,92.46
2024-03-27T02:20:31.463Z,92.37
2024-03-27T02:23:09.904Z,94.09
2024-03-27T02:25:53.257Z,93.43
2024-03-27T02:28:21.882Z,93.92
2024-03-27T02:30:52.356Z,94.41
2024-03-27T02:33:20.964Z,94.07
2024-03-27T02:35:49.565Z,94.57
2024-03-27T02:38:18.228Z,93.65
2024-03-27T02:40:46.927Z,94.54
2024-03-27T02:43:15.496Z,93.95
2024-03-27T02:45:44.138Z,93.25
2024-03-27T02:48:13.472Z,92.35
2024-03-27T02:50:42.219Z,91.90
2024-03-27T02:53:10.788Z,92.55
2024-03-27T02:55:39.391Z,91.58
2024-03-27T02:58:09.624Z,91.00
2024-03-27T03:00:38.364Z,91.01
2024-03-27T03:03:06.927Z,90.41
2024-03-27T03:09:02.688Z,90.99
2024-03-27T03:11:31.360Z,90.93
2024-03-27T03:13:59.988Z,90.72
2024-03-27T03:16:28.697Z,91.01
2024-03-27T03:18:57.237Z,90.64
2024-03-27T03:21:25.824Z,90.99
2024-03-27T03:23:54.440Z,90.57
2024-03-27T03:26:22.958Z,90.37
2024-03-27T03:28:51.534Z,91.46
2024-03-27T03:31:20.098Z,91.03
2024-03-27T03:33:48.703Z,90.26
2024-03-27T03:36:17.256Z,91.15
2024-03-27T03:38:46.083Z,91.21
2024-03-27T03:41:15.248Z,91.18
2024-03-27T03:43:44.167Z,91.76
2024-03-27T03:46:14.214Z,92.49
2024-03-27T03:48:42.987Z,92.28
2024-03-27T03:51:11.615Z,90.65
2024-03-27T03:53:40.085Z,91.53
2024-03-27T03:56:08.654Z,92.07
2024-03-27T03:58:37.290Z,93.33
2024-03-27T04:01:07.958Z,93.05
2024-03-27T04:03:39.478Z,94.03
2024-03-27T04:06:08.160Z,93.12
2024-03-27T04:08:36.822Z,91.90
2024-03-27T04:11:05.693Z,91.95
2024-03-27T04:13:34.537Z,92.79
2024-03-27T04:16:04.111Z,92.19
2024-03-27T04:18:32.663Z,92.47
2024-03-27T04:21:01.612Z,93.11
2024-03-27T04:23:30.327Z,91.62
2024-03-27T04:26:06.113Z,91.78
2024-03-27T04:28:36.905Z,92.94
2024-03-27T04:31:07.931Z,92.43
2024-03-27T04:33:36.798Z,91.91
2024-03-27T04:36:11.483Z,92.73
2024-03-27T04:38:40.121Z,92.46
2024-03-27T04:41:10.406Z,91.30
2024-03-27T04:43:40.610Z,91.23
2024-03-27T04:46:09.251Z,91.11
2024-03-27T04:48:38.077Z,91.86
2024-03-27T04:51:06.884Z,91.80
2024-03-27T04:53:35.678Z,91.41
2024-03-27T04:56:05.031Z,91.13
2024-03-27T04:58:34.087Z,91.01
2024-03-27T05:01:02.847Z,90.71
2024-03-27T05:03:31.690Z,90.23
2024-03-27T05:06:00.547Z,89.80
2024-03-27T05:08:29.343Z,89.16
2024-03-27T05:10:57.945Z,89.25
2024-03-27T05:13:26.983Z,88.84
2024-03-27T05:15:55.559Z,88.30
2024-03-27T05:18:24.202Z,88.08
2024-03-27T05:20:57.882Z,88.06
2024-03-27T05:23:27.739Z,87.88
2024-03-27T05:25:57.111Z,87.01
2024-03-27T05:28:25.816Z,86.33
2024-03-27T05:30:54.852Z,85.83
2024-03-27T05:33:23.842Z,85.58
2024-03-27T05:35:53.131Z,85.64
2024-03-27T05:38:24.248Z,85.67
2024-03-27T05:40:53.014Z,85.75
2024-03-27T05:43:21.817Z,85.62
2024-03-27T05:45:50.604Z,84.62
2024-03-27T05:48:19.749Z,84.54
2024-03-27T05:50:48.663Z,84.40
2024-03-27T05:53:17.595Z,84.14
2024-03-27T05:56:01.081Z,83.83
2024-03-27T05:58:33.172Z,83.10
2024-03-27T06:01:01.884Z,83.38
2024-03-27T06:03:31.356Z,83.08
2024-03-27T06:06:00.161Z,82.22
2024-03-27T06:08:28.966Z,82.05
2024-03-27T06:10:59.711Z,81.92
2024-03-27T06:13:28.943Z,81.57
2024-03-27T06:15:58.541Z,82.04
2024-03-27T06:18:27.282Z,81.78
2024-03-27T06:20:56.227Z,81.32
2024-03-27T06:23:25.118Z,81.02
2024-03-27T06:26:03.194Z,81.26
2024-03-27T06:28:32.319Z,81.48
2024-03-27T06:34:08.345Z,80.12
2024-03-27T06:36:38.792Z,80.23
2024-03-27T06:39:59.980Z,79.68
2024-03-27T06:42:29.221Z,80.09
2024-03-27T06:45:01.179Z,80.10
2024-03-27T06:47:35.823Z,79.78
2024-03-27T06:50:11.626Z,79.61
2024-03-27T06:52:40.310Z,78.84
2024-03-27T06:55:09.985Z,79.07
2024-03-27T06:57:39.005Z,79.49
2024-03-27T07:00:11.252Z,79.34
2024-03-27T07:02:40.837Z,79.19
2024-03-27T07:05:09.817Z,77.56
2024-03-27T07:07:38.708Z,70.84
2024-03-27T07:10:09.537Z,70.41
2024-03-27T07:12:38.874Z,68.61
2024-03-27T07:15:08.512Z,67.84
2024-03-27T07:17:37.564Z,64.37
2024-03-27T07:20:09.429Z,65.44
2024-03-27T07:22:38.394Z,64.31
2024-03-27T07:25:07.531Z,63.10
2024-03-27T07:27:38.302Z,59.92
2024-03-27T07:30:10.819Z,62.64
2024-03-27T07:32:41.315Z,57.10
2024-03-27T07:35:10.597Z,57.89
2024-03-27T07:37:39.381Z,56.78
2024-03-27T07:40:09.432Z,55.63
2024-03-27T07:42:47.491Z,54.79
2024-03-27T07:45:16.153Z,53.82
2024-03-27T07:47:45.556Z,53.97
2024-03-27T07:50:15.132Z,54.27
2024-03-27T07:57:21.887Z,53.11
2024-03-27T07:59:50.493Z,52.55
2024-03-27T08:02:21.055Z,52.28
2024-03-27T08:05:20.179Z,52.80
2024-03-27T08:07:48.903Z,51.55
2024-03-27T08:10:17.788Z,51.62
2024-03-27T08:12:47.748Z,52.24
2024-03-27T08:15:16.650Z,51.99
2024-03-27T08:17:45.506Z,50.52
2024-03-27T08:20:14.643Z,50.53
2024-03-27T08:22:43.362Z,49.84
2024-03-27T08:25:12.062Z,49.82
2024-03-27T08:28:38.992Z,50.28
2024-03-27T08:31:09.678Z,49.63
2024-03-27T08:33:39.603Z,49.05
2024-03-27T08:36:08.314Z,50.10
2024-03-27T08:38:39.241Z,49.31
2024-03-27T08:41:09.433Z,49.59
2024-03-27T08:43:38.096Z,49.62
2024-03-27T08:46:07.957Z,49.31
2024-03-27T08:48:36.612Z,48.89
2024-03-27T08:51:05.571Z,49.53
2024-03-27T08:53:38.783Z,48.40
2024-03-27T08:56:08.747Z,48.98
2024-03-27T08:58:40.884Z,48.83
2024-03-27T09:01:20.462Z,47.82
2024-03-27T09:03:49.116Z,46.50
2024-03-27T09:06:22.352Z,45.72
2024-03-27T09:08:51.159Z,45.01
2024-03-27T09:11:22.314Z,45.57
2024-03-27T09:13:51.205Z,45.73
2024-03-27T09:16:19.910Z,46.23
2024-03-27T09:18:49.003Z,45.67
2024-03-27T09:21:17.548Z,45.92
2024-03-27T09:23:46.220Z,45.11
2024-03-27T09:26:15.212Z,45.14
2024-03-27T09:28:44.094Z,45.07
2024-03-27T09:31:13.506Z,45.05
2024-03-27T09:33:42.311Z,45.50
2024-03-27T09:36:17.442Z,44.84
2024-03-27T09:38:46.064Z,45.47
2024-03-27T09:41:14.814Z,45.31
2024-03-27T09:43:45.700Z,45.83
2024-03-27T09:46:14.416Z,45.85
2024-03-27T09:48:44.532Z,45.79
2024-03-27T09:53:45.820Z,46.36
2024-03-27T09:56:14.716Z,45.87
2024-03-27T09:58:43.527Z,46.00
2024-03-27T10:01:12.537Z,46.03
2024-03-27T10:03:41.272Z,45.48
2024-03-27T10:06:10.106Z,45.95
2024-03-27T10:08:39.071Z,46.05
2024-03-27T10:11:08.761Z,45.54
2024-03-27T10:13:37.572Z,45.16
2024-03-27T10:16:15.947Z,45.89
2024-03-27T10:18:44.826Z,45.55
2024-03-27T10:21:14.238Z,45.83
2024-03-27T10:23:44.565Z,45.61
2024-03-27T10:26:13.900Z,45.55
2024-03-27T10:28:42.994Z,45.87
2024-03-27T10:31:14.434Z,45.75
2024-03-27T10:33:44.574Z,45.88
2024-03-27T10:36:17.636Z,46.37
2024-03-27T10:38:47.378Z,46.18
2024-03-27T10:41:16.683Z,45.76
2024-03-27T10:43:49.073Z,45.61
2024-03-27T10:46:18.507Z,45.17
2024-03-27T10:48:48.220Z,45.56
2024-03-27T10:51:25.585Z,45.83
2024-03-27T10:53:56.487Z,46.13
2024-03-27T10:56:25.971Z,45.58
2024-03-27T10:58:56.620Z,45.72
2024-03-27T11:01:26.074Z,44.89
2024-03-27T11:03:54.960Z,45.46
2024-03-27T11:06:23.815Z,44.69
2024-03-27T11:08:52.340Z,44.83
2024-03-27T11:11:21.544Z,44.92
2024-03-27T11:13:52.428Z,45.27
2024-03-27T11:16:24.142Z,45.06
2024-03-27T11:18:54.561Z,45.05
2024-03-27T11:21:28.926Z,45.57
2024-03-27T11:24:04.743Z,45.58
2024-03-27T11:26:33.989Z,45.48
2024-03-27T11:29:07.006Z,46.06
2024-03-27T11:31:41.714Z,45.66
2024-03-27T11:34:10.611Z,44.58
2024-03-27T11:36:42.779Z,43.53
2024-03-27T11:39:11.513Z,43.83
2024-03-27T11:41:40.412Z,44.43
2024-03-27T11:44:09.168Z,44.49
2024-03-27T11:46:40.698Z,44.71
2024-03-27T11:49:09.420Z,44.57
2024-03-27T11:52:13.467Z,44.68
2024-03-27T11:54:42.191Z,45.14
2024-03-27T11:57:12.529Z,45.61
2024-03-27T12:00:08.990Z,45.40
2024-03-27T12:02:38.875Z,45.64
2024-03-27T12:06:23.097Z,46.10
2024-03-27T12:08:55.799Z,46.15
2024-03-27T12:12:18.374Z,46.88
2024-03-27T12:14:47.129Z,46.85
2024-03-27T12:17:15.898Z,46.51
2024-03-27T12:19:57.446Z,46.78
2024-03-27T12:22:27.201Z,46.57
2024-03-27T12:24:56.243Z,46.86
2024-03-27T12:27:31.667Z,45.99
2024-03-27T12:30:01.722Z,44.65
2024-03-27T12:32:30.690Z,45.62
2024-03-27T12:35:03.414Z,46.32
2024-03-27T12:37:34.016Z,47.05
2024-03-27T12:40:03.471Z,47.53
2024-03-27T12:42:32.222Z,47.66
2024-03-27T12:45:00.879Z,47.58
2024-03-27T12:47:29.682Z,47.61
2024-03-27T12:49:58.605Z,47.49
2024-03-27T12:52:30.640Z,47.49
2024-03-27T12:55:07.103Z,47.53
2024-03-27T12:57:51.838Z,47.51
2024-03-27T13:00:27.650Z,47.40
2024-03-27T13:03:12.036Z,46.78
2024-03-27T13:05:45.344Z,46.42
2024-03-27T13:08:17.883Z,45.72
2024-03-27T13:10:47.838Z,45.51
2024-03-27T13:13:17.937Z,45.19
2024-03-27T13:15:47.884Z,45.15
2024-03-27T13:18:16.626Z,45.52
2024-03-27T13:20:45.312Z,45.60
2024-03-27T13:23:14.082Z,45.65
2024-03-27T13:25:44.792Z,45.70
2024-03-27T13:28:13.597Z,46.06
2024-03-27T13:30:42.788Z,45.59
2024-03-27T13:33:11.937Z,45.12
2024-03-27T13:35:40.649Z,45.18
2024-03-27T13:38:09.467Z,45.38
2024-03-27T13:40:38.150Z,45.23
2024-03-27T13:43:07.372Z,45.25
2024-03-27T13:45:36.275Z,45.03
2024-03-27T13:48:05.943Z,45.24
2024-03-27T13:50:36.432Z,45.49
2024-03-27T13:53:05.231Z,45.29
2024-03-27T13:55:34.226Z,45.53
2024-03-27T13:58:04.484Z,46.27
2024-03-27T14:00:33.307Z,46.84
2024-03-27T14:03:01.961Z,47.08
2024-03-27T14:05:30.797Z,46.97
2024-03-27T14:08:03.600Z,47.64
2024-03-27T14:10:34.295Z,48.14
2024-03-27T14:13:06.468Z,48.69
2024-03-27T14:15:35.722Z,49.43
2024-03-27T14:18:04.925Z,50.00
2024-03-27T14:20:33.662Z,50.47
2024-03-27T14:23:02.597Z,50.41
2024-03-27T14:25:31.298Z,49.87
2024-03-27T14:27:59.992Z,49.19
2024-03-27T14:30:28.853Z,49.09
2024-03-27T14:32:57.530Z,49.09
2024-03-27T14:35:26.686Z,49.21
2024-03-27T14:37:55.722Z,49.12
2024-03-27T14:40:25.677Z,49.18
2024-03-27T14:42:54.913Z,48.88
2024-03-27T14:45:24.238Z,48.38
2024-03-27T14:47:52.865Z,48.09
2024-03-27T14:50:21.458Z,47.89
2024-03-27T14:52:51.125Z,48.22
2024-03-27T14:55:20.085Z,48.27
2024-03-27T14:57:50.203Z,48.44
2024-03-27T15:00:19.285Z,48.02
2024-03-27T15:02:48.058Z,48.27
2024-03-27T15:05:17.122Z,48.28
2024-03-27T15:07:46.051Z,48.81
2024-03-27T15:10:14.872Z,48.98
2024-03-27T15:12:43.784Z,49.27
2024-03-27T15:15:13.112Z,49.09
2024-03-27T15:17:42.293Z,49.23
2024-03-27T15:20:12.566Z,49.21
2024-03-27T15:22:41.368Z,49.13
2024-03-27T15:25:10.690Z,48.83
2024-03-27T15:27:39.714Z,48.83
2024-03-27T15:30:09.396Z,48.77
2024-03-27T15:32:38.367Z,48.49
2024-03-27T15:35:08.161Z,48.01
2024-03-27T15:37:38.002Z,48.01
2024-03-27T15:43:37.934Z,48.86
2024-03-27T15:46:06.768Z,49.14
2024-03-27T15:48:36.107Z,49.31
2024-03-27T15:51:07.720Z,49.39
2024-03-27T15:53:40.330Z,49.80
2024-03-27T15:56:32.062Z,50.16
2024-03-27T16:02:16.650Z,51.01
2024-03-27T16:05:16.699Z,51.41
2024-03-27T16:08:08.003Z,51.99
2024-03-27T16:10:47.125Z,52.40
2024-03-27T16:13:17.576Z,52.79
2024-03-27T16:16:28.746Z,52.82
2024-03-27T16:18:58.833Z,53.13
2024-03-27T16:21:42.452Z,53.34
2024-03-27T16:24:19.227Z,53.47
2024-03-27T16:27:02.112Z,54.12
2024-03-27T16:29:31.689Z,53.95
2024-03-27T16:32:02.361Z,53.82
2024-03-27T16:34:36.422Z,54.09
2024-03-27T16:38:04.344Z,54.80
2024-03-27T16:40:34.471Z,54.74
2024-03-27T16:43:07.660Z,54.32
2024-03-27T16:45:42.874Z,54.53
2024-03-27T16:48:20.363Z,54.59
2024-03-27T16:51:07.423Z,54.65
2024-03-27T16:53:50.507Z,54.54
2024-03-27T16:56:28.897Z,54.49
2024-03-27T16:59:19.597Z,54.75
2024-03-27T17:05:30.897Z,54.06
2024-03-27T17:08:37.367Z,53.90
2024-03-27T17:11:32.523Z,53.69
2024-03-27T17:14:01.730Z,53.48
2024-03-27T17:16:36.814Z,53.32
2024-03-27T17:19:05.646Z,53.57
2024-03-27T17:21:34.907Z,53.57
2024-03-27T17:24:05.604Z,53.63
2024-03-27T17:26:36.063Z,53.66
2024-03-27T17:29:09.178Z,53.76
2024-03-27T17:31:38.521Z,53.68
2024-03-27T17:34:07.352Z,53.87
2024-03-27T17:36:36.346Z,53.98
2024-03-27T17:39:14.620Z,54.22
2024-03-27T17:41:47.500Z,54.34
2024-03-27T17:44:17.134Z,54.39
2024-03-27T17:47:08.864Z,54.85
2024-03-27T17:49:50.266Z,54.81
2024-03-27T17:56:06.499Z,54.90
2024-03-27T17:58:47.725Z,55.35
2024-03-27T18:03:07.988Z,55.18
2024-03-27T18:07:22.710Z,55.18
2024-03-27T18:15:22.691Z,55.91
2024-03-27T18:18:31.541Z,55.89
2024-03-27T18:21:04.245Z,56.13
2024-03-27T18:37:37.747Z,56.02
2024-03-27T18:41:14.154Z,56.28
2024-03-27T18:44:05.461Z,56.00
2024-03-27T18:47:13.127Z,56.05
2024-03-27T18:49:55.760Z,56.31
2024-03-27T18:52:25.840Z,56.29
2024-03-27T18:55:00.773Z,56.23
2024-03-27T18:57:41.636Z,56.33
2024-03-27T19:00:17.790Z,56.34
2024-03-27T19:02:53.903Z,56.52
2024-03-27T19:05:31.690Z,56.68
2024-03-27T19:08:02.625Z,56.58
2024-03-27T19:10:57.951Z,56.80
2024-03-27T19:13:52.396Z,56.94
2024-03-27T19:16:38.715Z,56.84
2024-03-27T19:19:17.375Z,56.86
2024-03-27T19:21:51.083Z,56.67
2024-03-27T19:24:19.938Z,56.86
2024-03-27T19:26:50.484Z,56.72
2024-03-27T19:29:30.780Z,56.89
2024-03-27T19:32:16.864Z,57.03
2024-03-27T19:34:49.679Z,57.20
2024-03-27T19:37:19.079Z,57.39
2024-03-27T19:39:51.162Z,57.21
2024-03-27T19:42:20.177Z,57.49
2024-03-27T19:44:49.864Z,57.60
2024-03-27T19:47:21.810Z,57.59
2024-03-27T19:50:04.194Z,57.77
2024-03-27T19:52:42.337Z,58.09
2024-03-27T19:55:14.818Z,57.97
2024-03-27T19:57:46.207Z,58.39
2024-03-27T20:00:16.767Z,58.40
2024-03-27T20:02:48.476Z,58.76
2024-03-27T20:05:20.928Z,58.76
2024-03-27T20:07:56.740Z,59.20
2024-03-27T20:10:28.796Z,59.36
2024-03-27T20:12:57.640Z,59.88
2024-03-27T20:15:27.451Z,60.32
2024-03-27T20:17:59.225Z,60.21
2024-03-27T20:20:32.541Z,60.46
2024-03-27T20:23:04.815Z,60.77
2024-03-27T20:26:13.029Z,60.86
2024-03-27T20:28:48.535Z,61.46
2024-03-27T20:31:19.383Z,61.50
2024-03-27T20:33:48.049Z,61.78
2024-03-27T20:36:18.305Z,62.40
2024-03-27T20:38:47.555Z,62.72
2024-03-27T20:41:19.918Z,62.28
2024-03-27T20:43:49.856Z,62.56
2024-03-27T20:46:19.841Z,62.71
2024-03-27T20:48:48.559Z,62.78
2024-03-27T20:51:20.406Z,63.54
2024-03-27T20:53:49.713Z,64.21
2024-03-27T20:56:18.361Z,64.42
2024-03-27T20:58:47.562Z,64.87
2024-03-27T21:01:16.532Z,64.42
2024-03-27T21:03:57.424Z,64.36
2024-03-27T21:06:29.728Z,64.61
2024-03-27T21:09:01.407Z,65.10
2024-03-27T21:11:30.060Z,65.72
2024-03-27T21:13:58.988Z,65.50
2024-03-27T21:16:27.657Z,66.51
2024-03-27T21:18:56.587Z,66.61
2024-03-27T21:21:26.198Z,67.58
2024-03-27T21:23:55.466Z,68.27
2024-03-27T21:26:24.940Z,67.78
2024-03-27T21:28:55.161Z,67.51
2024-03-27T21:31:24.178Z,68.28
2024-03-27T21:33:53.491Z,69.60
2024-03-27T21:36:26.141Z,69.54
2024-03-27T21:38:55.128Z,70.08
2024-03-27T21:41:24.124Z,70.06
2024-03-27T21:43:53.101Z,70.22
2024-03-27T21:46:22.069Z,70.61
2024-03-27T21:48:51.175Z,71.66
2024-03-27T21:53:49.918Z,72.69
2024-03-27T21:56:18.536Z,72.30
2024-03-27T21:58:48.538Z,72.20
2024-03-27T22:01:17.402Z,73.19
2024-03-27T22:03:47.529Z,73.29
2024-03-27T22:06:16.471Z,74.22
2024-03-27T22:08:45.090Z,73.56
2024-03-27T22:11:14.155Z,74.51
2024-03-27T22:13:46.648Z,75.44
2024-03-27T22:16:15.455Z,75.01
2024-03-27T22:18:44.585Z,76.27
2024-03-27T22:21:16.207Z,76.51
2024-03-27T22:23:45.076Z,75.56
2024-03-27T22:26:19.617Z,75.15
2024-03-27T22:28:51.955Z,75.67
2024-03-27T22:31:25.103Z,76.47
2024-03-27T22:33:54.006Z,77.19
2024-03-27T22:36:22.635Z,78.21
2024-03-27T22:38:51.464Z,76.92
2024-03-27T22:41:21.512Z,76.78
2024-03-27T22:43:50.151Z,78.50
2024-03-27T22:46:18.729Z,78.52
2024-03-27T22:48:56.959Z,78.86
2024-03-27T22:51:29.727Z,78.97
2024-03-27T22:53:58.822Z,78.87
2024-03-27T22:56:28.645Z,80.20
2024-03-27T22:58:57.607Z,79.84
2024-03-27T23:01:28.562Z,80.61
2024-03-27T23:03:57.262Z,79.83
2024-03-27T23:06:25.819Z,80.26
2024-03-27T23:08:54.554Z,80.60
2024-03-27T23:11:23.256Z,81.02
2024-03-27T23:13:51.761Z,79.82
2024-03-27T23:16:20.714Z,81.29
2024-03-27T23:18:49.280Z,81.79
2024-03-27T23:21:18.082Z,81.84
2024-03-27T23:23:46.671Z,82.72
2024-03-27T23:26:15.210Z,82.67
2024-03-27T23:28:43.910Z,83.76
2024-03-27T23:31:12.552Z,82.68
2024-03-27T23:33:41.121Z,83.31
2024-03-27T23:36:10.284Z,83.36
2024-03-27T23:38:39.226Z,83.78
2024-03-27T23:41:09.181Z,83.44
2024-03-27T23:43:38.162Z,84.72
2024-03-27T23:46:06.752Z,84.05
2024-03-27T23:48:35.489Z,85.41
2024-03-27T23:51:06.243Z,84.80
2024-03-27T23:53:38.143Z,85.03
2024-03-27T23:56:07.011Z,85.91
2024-03-27T23:58:35.984Z,85.34
